sensor_id;sensor_type;location;lat;lon;timestamp;P1;durP1;ratioP1;P2;durP2;ratioP2
25559;SDS011;13450;49.374;8.584;2023-02-18T00:01:49;6.97;;;2.83;;
25559;SDS011;13450;49.374;8.584;2023-02-18T00:04:15;5.63;;;2.10;;
25559;SDS011;13450;49.374;8.584;2023-02-18T00:06:40;4.72;;;2.10;;
25559;SDS011;13450;49.374;8.584;2023-02-18T00:09:06;5.63;;;2.30;;
25559;SDS011;13450;49.374;8.584;2023-02-18T00:11:33;5.95;;;2.28;;
25559;SDS011;13450;49.374;8.584;2023-02-18T00:14:00;5.00;;;2.42;;
25559;SDS011;13450;49.374;8.584;2023-02-18T00:16:29;6.72;;;2.78;;
25559;SDS011;13450;49.374;8.584;2023-02-18T00:18:58;4.40;;;2.30;;
25559;SDS011;13450;49.374;8.584;2023-02-18T00:21:28;5.53;;;2.22;;
25559;SDS011;13450;49.374;8.584;2023-02-18T00:23:57;5.68;;;2.22;;
25559;SDS011;13450;49.374;8.584;2023-02-18T00:26:23;4.68;;;2.42;;
25559;SDS011;13450;49.374;8.584;2023-02-18T00:28:49;4.93;;;2.20;;
25559;SDS011;13450;49.374;8.584;2023-02-18T00:31:17;5.05;;;2.20;;
25559;SDS011;13450;49.374;8.584;2023-02-18T00:33:44;4.88;;;2.30;;
25559;SDS011;13450;49.374;8.584;2023-02-18T00:36:14;4.38;;;1.90;;
25559;SDS011;13450;49.374;8.584;2023-02-18T00:38:47;4.38;;;2.10;;
25559;SDS011;13450;49.374;8.584;2023-02-18T00:41:15;4.95;;;2.28;;
25559;SDS011;13450;49.374;8.584;2023-02-18T00:43:41;3.85;;;2.08;;
25559;SDS011;13450;49.374;8.584;2023-02-18T00:46:08;4.60;;;2.15;;
25559;SDS011;13450;49.374;8.584;2023-02-18T00:48:34;3.92;;;1.60;;
25559;SDS011;13450;49.374;8.584;2023-02-18T00:51:00;4.20;;;2.10;;
25559;SDS011;13450;49.374;8.584;2023-02-18T00:53:28;4.45;;;2.22;;
25559;SDS011;13450;49.374;8.584;2023-02-18T00:55:54;5.68;;;2.38;;
25559;SDS011;13450;49.374;8.584;2023-02-18T00:58:20;5.57;;;2.38;;
25559;SDS011;13450;49.374;8.584;2023-02-18T01:00:45;4.55;;;2.20;;
25559;SDS011;13450;49.374;8.584;2023-02-18T01:03:16;4.93;;;2.28;;
25559;SDS011;13450;49.374;8.584;2023-02-18T01:05:44;4.82;;;2.22;;
25559;SDS011;13450;49.374;8.584;2023-02-18T01:08:14;4.18;;;2.15;;
25559;SDS011;13450;49.374;8.584;2023-02-18T01:10:41;5.68;;;2.47;;
25559;SDS011;13450;49.374;8.584;2023-02-18T01:13:12;7.60;;;2.30;;
25559;SDS011;13450;49.374;8.584;2023-02-18T01:15:38;4.82;;;2.20;;
25559;SDS011;13450;49.374;8.584;2023-02-18T01:18:05;4.90;;;2.30;;
25559;SDS011;13450;49.374;8.584;2023-02-18T01:20:35;4.35;;;1.95;;
25559;SDS011;13450;49.374;8.584;2023-02-18T01:23:12;4.47;;;2.28;;
25559;SDS011;13450;49.374;8.584;2023-02-18T01:25:38;4.60;;;2.20;;
25559;SDS011;13450;49.374;8.584;2023-02-18T01:28:06;4.53;;;2.20;;
25559;SDS011;13450;49.374;8.584;2023-02-18T01:33:08;4.43;;;1.90;;
25559;SDS011;13450;49.374;8.584;2023-02-18T01:35:37;4.70;;;2.17;;
25559;SDS011;13450;49.374;8.584;2023-02-18T01:38:07;5.40;;;2.10;;
25559;SDS011;13450;49.374;8.584;2023-02-18T01:40:35;4.50;;;1.90;;
25559;SDS011;13450;49.374;8.584;2023-02-18T01:43:08;5.07;;;2.13;;
25559;SDS011;13450;49.374;8.584;2023-02-18T01:48:24;5.82;;;2.45;;
25559;SDS011;13450;49.374;8.584;2023-02-18T01:51:26;5.15;;;2.40;;
25559;SDS011;13450;49.374;8.584;2023-02-18T01:54:12;5.20;;;2.08;;
25559;SDS011;13450;49.374;8.584;2023-02-18T01:57:00;4.40;;;1.90;;
25559;SDS011;13450;49.374;8.584;2023-02-18T01:59:38;4.38;;;1.80;;
25559;SDS011;13450;49.374;8.584;2023-02-18T02:02:10;4.75;;;2.10;;
25559;SDS011;13450;49.374;8.584;2023-02-18T02:04:38;3.83;;;1.63;;
25559;SDS011;13450;49.374;8.584;2023-02-18T02:07:03;4.82;;;2.13;;
25559;SDS011;13450;49.374;8.584;2023-02-18T02:09:33;4.00;;;2.13;;
25559;SDS011;13450;49.374;8.584;2023-02-18T02:17:27;3.75;;;1.60;;
25559;SDS011;13450;49.374;8.584;2023-02-18T02:26:56;3.67;;;1.65;;
25559;SDS011;13450;49.374;8.584;2023-02-18T02:29:32;3.63;;;1.70;;
25559;SDS011;13450;49.374;8.584;2023-02-18T02:34:49;4.28;;;1.85;;
25559;SDS011;13450;49.374;8.584;2023-02-18T02:51:40;3.92;;;1.70;;
25559;SDS011;13450;49.374;8.584;2023-02-18T02:54:23;3.58;;;1.85;;
25559;SDS011;13450;49.374;8.584;2023-02-18T02:59:43;4.25;;;1.70;;
25559;SDS011;13450;49.374;8.584;2023-02-18T03:02:30;4.53;;;2.03;;
25559;SDS011;13450;49.374;8.584;2023-02-18T03:09:08;4.68;;;2.08;;
25559;SDS011;13450;49.374;8.584;2023-02-18T03:11:58;5.43;;;2.00;;
25559;SDS011;13450;49.374;8.584;2023-02-18T03:17:33;3.75;;;1.80;;
25559;SDS011;13450;49.374;8.584;2023-02-18T03:20:06;4.63;;;2.00;;
25559;SDS011;13450;49.374;8.584;2023-02-18T03:22:40;4.10;;;1.83;;
25559;SDS011;13450;49.374;8.584;2023-02-18T03:25:12;3.80;;;1.90;;
25559;SDS011;13450;49.374;8.584;2023-02-18T03:27:42;4.03;;;1.67;;
25559;SDS011;13450;49.374;8.584;2023-02-18T03:30:16;5.05;;;2.05;;
25559;SDS011;13450;49.374;8.584;2023-02-18T03:32:47;4.47;;;1.90;;
25559;SDS011;13450;49.374;8.584;2023-02-18T03:35:16;5.07;;;2.47;;
25559;SDS011;13450;49.374;8.584;2023-02-18T03:37:46;5.13;;;1.98;;
25559;SDS011;13450;49.374;8.584;2023-02-18T03:40:17;6.43;;;2.35;;
25559;SDS011;13450;49.374;8.584;2023-02-18T03:42:44;4.93;;;1.90;;
25559;SDS011;13450;49.374;8.584;2023-02-18T03:45:10;5.55;;;2.20;;
25559;SDS011;13450;49.374;8.584;2023-02-18T03:47:35;6.30;;;2.22;;
25559;SDS011;13450;49.374;8.584;2023-02-18T03:50:04;4.72;;;2.10;;
25559;SDS011;13450;49.374;8.584;2023-02-18T03:52:31;4.95;;;2.20;;
25559;SDS011;13450;49.374;8.584;2023-02-18T03:55:03;5.28;;;2.60;;
25559;SDS011;13450;49.374;8.584;2023-02-18T03:57:29;5.13;;;2.20;;
25559;SDS011;13450;49.374;8.584;2023-02-18T03:59:58;4.20;;;2.20;;
25559;SDS011;13450;49.374;8.584;2023-02-18T04:02:26;5.25;;;2.40;;
25559;SDS011;13450;49.374;8.584;2023-02-18T04:04:52;4.75;;;2.33;;
25559;SDS011;13450;49.374;8.584;2023-02-18T04:07:18;4.85;;;2.10;;
25559;SDS011;13450;49.374;8.584;2023-02-18T04:09:47;5.00;;;2.40;;
25559;SDS011;13450;49.374;8.584;2023-02-18T04:12:12;5.43;;;2.40;;
25559;SDS011;13450;49.374;8.584;2023-02-18T04:14:40;4.32;;;2.10;;
25559;SDS011;13450;49.374;8.584;2023-02-18T04:17:07;4.78;;;2.25;;
25559;SDS011;13450;49.374;8.584;2023-02-18T04:19:35;4.85;;;2.40;;
25559;SDS011;13450;49.374;8.584;2023-02-18T04:22:01;4.68;;;2.03;;
25559;SDS011;13450;49.374;8.584;2023-02-18T04:24:27;5.32;;;2.45;;
25559;SDS011;13450;49.374;8.584;2023-02-18T04:26:53;6.45;;;2.50;;
25559;SDS011;13450;49.374;8.584;2023-02-18T04:29:27;4.85;;;2.40;;
25559;SDS011;13450;49.374;8.584;2023-02-18T04:32:02;4.55;;;2.17;;
25559;SDS011;13450;49.374;8.584;2023-02-18T04:34:30;7.13;;;2.40;;
25559;SDS011;13450;49.374;8.584;2023-02-18T04:36:56;5.22;;;2.42;;
25559;SDS011;13450;49.374;8.584;2023-02-18T04:39:24;6.00;;;2.70;;
25559;SDS011;13450;49.374;8.584;2023-02-18T04:41:50;5.28;;;2.40;;
25559;SDS011;13450;49.374;8.584;2023-02-18T04:44:16;5.13;;;2.58;;
25559;SDS011;13450;49.374;8.584;2023-02-18T04:46:42;5.70;;;2.65;;
25559;SDS011;13450;49.374;8.584;2023-02-18T04:49:07;5.28;;;2.65;;
25559;SDS011;13450;49.374;8.584;2023-02-18T04:51:33;6.80;;;2.85;;
25559;SDS011;13450;49.374;8.584;2023-02-18T04:53:58;5.93;;;2.55;;
25559;SDS011;13450;49.374;8.584;2023-02-18T04:56:23;7.15;;;2.85;;
25559;SDS011;13450;49.374;8.584;2023-02-18T04:58:49;7.10;;;2.83;;
25559;SDS011;13450;49.374;8.584;2023-02-18T05:01:14;6.15;;;2.70;;
25559;SDS011;13450;49.374;8.584;2023-02-18T05:03:40;6.70;;;2.67;;
25559;SDS011;13450;49.374;8.584;2023-02-18T05:06:09;5.63;;;3.03;;
25559;SDS011;13450;49.374;8.584;2023-02-18T05:08:35;6.95;;;3.20;;
25559;SDS011;13450;49.374;8.584;2023-02-18T05:11:03;6.45;;;3.22;;
25559;SDS011;13450;49.374;8.584;2023-02-18T05:13:30;5.55;;;2.83;;
25559;SDS011;13450;49.374;8.584;2023-02-18T05:15:55;7.15;;;2.70;;
25559;SDS011;13450;49.374;8.584;2023-02-18T05:18:21;6.07;;;3.00;;
25559;SDS011;13450;49.374;8.584;2023-02-18T05:20:47;6.72;;;3.17;;
25559;SDS011;13450;49.374;8.584;2023-02-18T05:23:12;6.20;;;2.95;;
25559;SDS011;13450;49.374;8.584;2023-02-18T05:25:55;7.03;;;3.25;;
25559;SDS011;13450;49.374;8.584;2023-02-18T05:34:50;6.22;;;3.05;;
25559;SDS011;13450;49.374;8.584;2023-02-18T05:37:19;6.80;;;2.92;;
25559;SDS011;13450;49.374;8.584;2023-02-18T05:39:46;8.38;;;3.13;;
25559;SDS011;13450;49.374;8.584;2023-02-18T05:42:17;7.05;;;3.20;;
25559;SDS011;13450;49.374;8.584;2023-02-18T05:44:44;6.90;;;2.95;;
25559;SDS011;13450;49.374;8.584;2023-02-18T05:47:11;5.63;;;2.95;;
25559;SDS011;13450;49.374;8.584;2023-02-18T05:49:37;6.63;;;3.05;;
25559;SDS011;13450;49.374;8.584;2023-02-18T05:52:09;7.57;;;3.40;;
25559;SDS011;13450;49.374;8.584;2023-02-18T05:54:37;6.22;;;3.05;;
25559;SDS011;13450;49.374;8.584;2023-02-18T05:57:03;6.28;;;3.15;;
25559;SDS011;13450;49.374;8.584;2023-02-18T05:59:30;7.03;;;3.30;;
25559;SDS011;13450;49.374;8.584;2023-02-18T06:02:15;6.30;;;3.15;;
25559;SDS011;13450;49.374;8.584;2023-02-18T06:04:43;7.03;;;3.13;;
25559;SDS011;13450;49.374;8.584;2023-02-18T06:07:09;7.05;;;3.17;;
25559;SDS011;13450;49.374;8.584;2023-02-18T06:09:34;6.30;;;2.80;;
25559;SDS011;13450;49.374;8.584;2023-02-18T06:12:06;6.63;;;3.33;;
25559;SDS011;13450;49.374;8.584;2023-02-18T06:14:32;9.35;;;3.60;;
25559;SDS011;13450;49.374;8.584;2023-02-18T06:17:01;7.43;;;3.67;;
25559;SDS011;13450;49.374;8.584;2023-02-18T06:19:26;6.57;;;3.13;;
25559;SDS011;13450;49.374;8.584;2023-02-18T06:21:54;5.18;;;2.75;;
25559;SDS011;13450;49.374;8.584;2023-02-18T06:24:20;6.80;;;2.60;;
25559;SDS011;13450;49.374;8.584;2023-02-18T06:26:46;5.70;;;2.67;;
25559;SDS011;13450;49.374;8.584;2023-02-18T06:29:11;5.03;;;2.53;;
25559;SDS011;13450;49.374;8.584;2023-02-18T06:31:40;4.80;;;2.40;;
25559;SDS011;13450;49.374;8.584;2023-02-18T06:34:05;4.68;;;2.22;;
25559;SDS011;13450;49.374;8.584;2023-02-18T06:36:32;4.53;;;2.40;;
25559;SDS011;13450;49.374;8.584;2023-02-18T06:38:57;5.43;;;2.75;;
25559;SDS011;13450;49.374;8.584;2023-02-18T06:41:24;6.80;;;2.88;;
25559;SDS011;13450;49.374;8.584;2023-02-18T06:43:49;5.88;;;2.83;;
25559;SDS011;13450;49.374;8.584;2023-02-18T06:46:16;5.32;;;2.72;;
25559;SDS011;13450;49.374;8.584;2023-02-18T06:48:45;5.60;;;2.72;;
25559;SDS011;13450;49.374;8.584;2023-02-18T06:51:12;5.10;;;2.47;;
25559;SDS011;13450;49.374;8.584;2023-02-18T06:53:41;4.95;;;2.40;;
25559;SDS011;13450;49.374;8.584;2023-02-18T06:56:16;4.55;;;2.17;;
25559;SDS011;13450;49.374;8.584;2023-02-18T06:58:42;4.80;;;2.40;;
25559;SDS011;13450;49.374;8.584;2023-02-18T07:01:09;6.78;;;2.53;;
25559;SDS011;13450;49.374;8.584;2023-02-18T07:03:35;5.97;;;2.25;;
25559;SDS011;13450;49.374;8.584;2023-02-18T07:06:00;5.22;;;2.15;;
25559;SDS011;13450;49.374;8.584;2023-02-18T07:08:25;5.10;;;2.40;;
25559;SDS011;13450;49.374;8.584;2023-02-18T07:10:52;5.22;;;2.30;;
25559;SDS011;13450;49.374;8.584;2023-02-18T07:13:17;4.00;;;1.95;;
25559;SDS011;13450;49.374;8.584;2023-02-18T07:15:43;4.68;;;1.95;;
25559;SDS011;13450;49.374;8.584;2023-02-18T07:18:11;6.22;;;2.33;;
25559;SDS011;13450;49.374;8.584;2023-02-18T07:20:36;5.50;;;2.50;;
25559;SDS011;13450;49.374;8.584;2023-02-18T07:23:02;4.47;;;2.05;;
25559;SDS011;13450;49.374;8.584;2023-02-18T07:25:28;4.80;;;2.10;;
25559;SDS011;13450;49.374;8.584;2023-02-18T07:27:54;5.00;;;2.45;;
25559;SDS011;13450;49.374;8.584;2023-02-18T07:30:23;4.90;;;2.47;;
25559;SDS011;13450;49.374;8.584;2023-02-18T07:32:49;4.75;;;2.03;;
25559;SDS011;13450;49.374;8.584;2023-02-18T07:35:18;5.28;;;2.20;;
25559;SDS011;13450;49.374;8.584;2023-02-18T07:37:46;4.70;;;2.08;;
25559;SDS011;13450;49.374;8.584;2023-02-18T07:40:15;7.40;;;2.90;;
25559;SDS011;13450;49.374;8.584;2023-02-18T07:42:50;4.80;;;2.15;;
25559;SDS011;13450;49.374;8.584;2023-02-18T07:45:18;5.32;;;2.60;;
25559;SDS011;13450;49.374;8.584;2023-02-18T07:47:48;4.35;;;1.92;;
25559;SDS011;13450;49.374;8.584;2023-02-18T07:50:14;4.43;;;2.20;;
25559;SDS011;13450;49.374;8.584;2023-02-18T07:52:42;6.05;;;2.30;;
25559;SDS011;13450;49.374;8.584;2023-02-18T07:55:07;7.22;;;2.22;;
25559;SDS011;13450;49.374;8.584;2023-02-18T07:57:33;4.80;;;2.20;;
25559;SDS011;13450;49.374;8.584;2023-02-18T08:00:18;6.07;;;2.50;;
25559;SDS011;13450;49.374;8.584;2023-02-18T08:02:46;6.22;;;2.67;;
25559;SDS011;13450;49.374;8.584;2023-02-18T08:05:12;4.40;;;2.05;;
25559;SDS011;13450;49.374;8.584;2023-02-18T08:07:37;4.22;;;2.00;;
25559;SDS011;13450;49.374;8.584;2023-02-18T08:10:04;5.47;;;2.38;;
25559;SDS011;13450;49.374;8.584;2023-02-18T08:12:30;4.97;;;2.38;;
25559;SDS011;13450;49.374;8.584;2023-02-18T08:14:58;7.15;;;3.28;;
25559;SDS011;13450;49.374;8.584;2023-02-18T08:17:27;5.72;;;2.47;;
25559;SDS011;13450;49.374;8.584;2023-02-18T08:19:53;4.95;;;2.50;;
25559;SDS011;13450;49.374;8.584;2023-02-18T08:22:21;5.20;;;2.22;;
25559;SDS011;13450;49.374;8.584;2023-02-18T08:24:49;4.55;;;2.03;;
25559;SDS011;13450;49.374;8.584;2023-02-18T08:27:17;5.10;;;2.25;;
25559;SDS011;13450;49.374;8.584;2023-02-18T08:29:43;4.75;;;2.33;;
25559;SDS011;13450;49.374;8.584;2023-02-18T08:32:11;5.00;;;2.17;;
25559;SDS011;13450;49.374;8.584;2023-02-18T08:34:41;4.95;;;2.05;;
25559;SDS011;13450;49.374;8.584;2023-02-18T08:39:41;4.15;;;1.90;;
25559;SDS011;13450;49.374;8.584;2023-02-18T08:42:07;5.65;;;2.30;;
25559;SDS011;13450;49.374;8.584;2023-02-18T08:44:32;4.95;;;2.17;;
25559;SDS011;13450;49.374;8.584;2023-02-18T08:49:34;7.28;;;2.97;;
25559;SDS011;13450;49.374;8.584;2023-02-18T08:54:37;4.57;;;1.90;;
25559;SDS011;13450;49.374;8.584;2023-02-18T08:57:06;3.97;;;1.80;;
25559;SDS011;13450;49.374;8.584;2023-02-18T09:07:17;4.50;;;1.92;;
25559;SDS011;13450;49.374;8.584;2023-02-18T09:14:54;5.57;;;2.15;;
25559;SDS011;13450;49.374;8.584;2023-02-18T09:22:35;4.53;;;2.08;;
25559;SDS011;13450;49.374;8.584;2023-02-18T09:25:00;5.60;;;2.00;;
25559;SDS011;13450;49.374;8.584;2023-02-18T09:30:02;5.45;;;2.35;;
25559;SDS011;13450;49.374;8.584;2023-02-18T09:35:04;6.25;;;2.00;;
25559;SDS011;13450;49.374;8.584;2023-02-18T09:42:43;3.80;;;1.70;;
25559;SDS011;13450;49.374;8.584;2023-02-18T09:50:59;5.35;;;2.05;;
25559;SDS011;13450;49.374;8.584;2023-02-18T10:05:28;7.30;;;3.13;;
25559;SDS011;13450;49.374;8.584;2023-02-18T10:07:57;8.23;;;3.65;;
25559;SDS011;13450;49.374;8.584;2023-02-18T10:10:30;6.25;;;2.55;;
25559;SDS011;13450;49.374;8.584;2023-02-18T10:13:03;5.05;;;2.10;;
25559;SDS011;13450;49.374;8.584;2023-02-18T10:18:26;5.45;;;2.47;;
25559;SDS011;13450;49.374;8.584;2023-02-18T10:26:20;7.25;;;2.90;;
25559;SDS011;13450;49.374;8.584;2023-02-18T10:28:48;7.82;;;3.70;;
25559;SDS011;13450;49.374;8.584;2023-02-18T10:31:35;5.50;;;2.45;;
25559;SDS011;13450;49.374;8.584;2023-02-18T10:37:22;5.55;;;2.38;;
25559;SDS011;13450;49.374;8.584;2023-02-18T10:42:25;4.55;;;2.38;;
25559;SDS011;13450;49.374;8.584;2023-02-18T10:45:12;5.85;;;2.28;;
25559;SDS011;13450;49.374;8.584;2023-02-18T10:48:02;4.22;;;2.20;;
25559;SDS011;13450;49.374;8.584;2023-02-18T10:50:52;6.78;;;2.88;;
25559;SDS011;13450;49.374;8.584;2023-02-18T10:53:30;6.85;;;2.70;;
25559;SDS011;13450;49.374;8.584;2023-02-18T10:55:59;8.57;;;3.83;;
25559;SDS011;13450;49.374;8.584;2023-02-18T11:01:15;5.93;;;2.72;;
25559;SDS011;13450;49.374;8.584;2023-02-18T11:03:45;5.63;;;2.83;;
25559;SDS011;13450;49.374;8.584;2023-02-18T11:06:46;5.43;;;2.67;;
25559;SDS011;13450;49.374;8.584;2023-02-18T11:09:12;7.57;;;3.42;;
25559;SDS011;13450;49.374;8.584;2023-02-18T11:11:57;6.50;;;3.33;;
25559;SDS011;13450;49.374;8.584;2023-02-18T11:17:41;4.43;;;1.98;;
25559;SDS011;13450;49.374;8.584;2023-02-18T11:25:37;6.03;;;2.70;;
25559;SDS011;13450;49.374;8.584;2023-02-18T11:33:22;6.10;;;2.88;;
25559;SDS011;13450;49.374;8.584;2023-02-18T11:36:03;5.95;;;2.95;;
25559;SDS011;13450;49.374;8.584;2023-02-18T11:47:35;6.05;;;3.22;;
25559;SDS011;13450;49.374;8.584;2023-02-18T11:52:36;8.05;;;3.22;;
25559;SDS011;13450;49.374;8.584;2023-02-18T12:00:36;6.38;;;3.22;;
25559;SDS011;13450;49.374;8.584;2023-02-18T12:03:14;5.88;;;2.97;;
25559;SDS011;13450;49.374;8.584;2023-02-18T12:05:41;5.95;;;3.00;;
25559;SDS011;13450;49.374;8.584;2023-02-18T12:10:52;6.68;;;3.03;;
25559;SDS011;13450;49.374;8.584;2023-02-18T12:13:25;6.22;;;2.80;;
25559;SDS011;13450;49.374;8.584;2023-02-18T12:21:34;5.88;;;2.72;;
25559;SDS011;13450;49.374;8.584;2023-02-18T12:24:15;6.32;;;2.75;;
25559;SDS011;13450;49.374;8.584;2023-02-18T12:40:45;4.93;;;2.60;;
25559;SDS011;13450;49.374;8.584;2023-02-18T12:57:52;5.85;;;2.55;;
25559;SDS011;13450;49.374;8.584;2023-02-18T13:08:46;4.65;;;2.30;;
25559;SDS011;13450;49.374;8.584;2023-02-18T13:11:23;3.67;;;1.92;;
25559;SDS011;13450;49.374;8.584;2023-02-18T13:13:57;3.88;;;2.00;;
25559;SDS011;13450;49.374;8.584;2023-02-18T13:16:28;5.00;;;2.05;;
25559;SDS011;13450;49.374;8.584;2023-02-18T13:19:02;4.63;;;2.10;;
25559;SDS011;13450;49.374;8.584;2023-02-18T13:21:38;3.60;;;1.80;;
25559;SDS011;13450;49.374;8.584;2023-02-18T13:24:09;4.60;;;1.80;;
25559;SDS011;13450;49.374;8.584;2023-02-18T13:26:36;5.00;;;2.08;;
25559;SDS011;13450;49.374;8.584;2023-02-18T13:50:12;4.03;;;1.80;;
25559;SDS011;13450;49.374;8.584;2023-02-18T14:00:33;5.32;;;2.30;;
25559;SDS011;13450;49.374;8.584;2023-02-18T14:08:12;4.75;;;1.98;;
25559;SDS011;13450;49.374;8.584;2023-02-18T14:13:53;5.07;;;2.28;;
25559;SDS011;13450;49.374;8.584;2023-02-18T14:19:40;5.35;;;2.38;;
25559;SDS011;13450;49.374;8.584;2023-02-18T14:22:23;7.35;;;2.40;;
25559;SDS011;13450;49.374;8.584;2023-02-18T14:27:35;4.88;;;2.40;;
25559;SDS011;13450;49.374;8.584;2023-02-18T14:32:45;5.80;;;2.25;;
25559;SDS011;13450;49.374;8.584;2023-02-18T14:43:57;6.88;;;2.75;;
25559;SDS011;13450;49.374;8.584;2023-02-18T14:49:56;5.18;;;2.40;;
25559;SDS011;13450;49.374;8.584;2023-02-18T14:55:02;6.57;;;2.72;;
25559;SDS011;13450;49.374;8.584;2023-02-18T14:57:51;6.85;;;2.92;;
25559;SDS011;13450;49.374;8.584;2023-02-18T15:00:21;6.07;;;2.57;;
25559;SDS011;13450;49.374;8.584;2023-02-18T15:02:53;5.57;;;2.50;;
25559;SDS011;13450;49.374;8.584;2023-02-18T15:05:20;6.38;;;2.10;;
25559;SDS011;13450;49.374;8.584;2023-02-18T15:08:04;7.07;;;2.67;;
25559;SDS011;13450;49.374;8.584;2023-02-18T15:10:42;5.65;;;2.63;;
25559;SDS011;13450;49.374;8.584;2023-02-18T15:13:21;5.60;;;2.72;;
25559;SDS011;13450;49.374;8.584;2023-02-18T15:15:53;6.80;;;2.33;;
25559;SDS011;13450;49.374;8.584;2023-02-18T15:20:53;4.70;;;2.10;;
25559;SDS011;13450;49.374;8.584;2023-02-18T15:23:18;4.93;;;1.98;;
25559;SDS011;13450;49.374;8.584;2023-02-18T15:25:46;4.35;;;2.20;;
25559;SDS011;13450;49.374;8.584;2023-02-18T15:28:20;6.60;;;2.28;;
25559;SDS011;13450;49.374;8.584;2023-02-18T15:30:47;6.88;;;2.97;;
25559;SDS011;13450;49.374;8.584;2023-02-18T15:33:18;4.88;;;2.22;;
25559;SDS011;13450;49.374;8.584;2023-02-18T15:35:44;5.18;;;2.38;;
25559;SDS011;13450;49.374;8.584;2023-02-18T15:38:17;5.88;;;2.40;;
25559;SDS011;13450;49.374;8.584;2023-02-18T15:40:46;5.53;;;2.40;;
25559;SDS011;13450;49.374;8.584;2023-02-18T15:43:17;5.25;;;2.50;;
25559;SDS011;13450;49.374;8.584;2023-02-18T15:45:45;5.22;;;2.55;;
25559;SDS011;13450;49.374;8.584;2023-02-18T15:48:35;7.45;;;2.80;;
25559;SDS011;13450;49.374;8.584;2023-02-18T15:51:05;5.50;;;2.58;;
25559;SDS011;13450;49.374;8.584;2023-02-18T15:53:37;6.00;;;2.90;;
25559;SDS011;13450;49.374;8.584;2023-02-18T15:56:06;5.57;;;2.70;;
25559;SDS011;13450;49.374;8.584;2023-02-18T15:58:39;6.07;;;3.10;;
25559;SDS011;13450;49.374;8.584;2023-02-18T16:01:21;4.55;;;2.08;;
25559;SDS011;13450;49.374;8.584;2023-02-18T16:03:54;5.55;;;2.45;;
25559;SDS011;13450;49.374;8.584;2023-02-18T16:06:24;5.20;;;2.40;;
25559;SDS011;13450;49.374;8.584;2023-02-18T16:11:24;8.30;;;2.50;;
25559;SDS011;13450;49.374;8.584;2023-02-18T16:13:55;5.18;;;2.28;;
25559;SDS011;13450;49.374;8.584;2023-02-18T16:16:34;5.28;;;2.38;;
25559;SDS011;13450;49.374;8.584;2023-02-18T16:19:01;7.00;;;2.67;;
25559;SDS011;13450;49.374;8.584;2023-02-18T16:21:40;4.78;;;2.38;;
25559;SDS011;13450;49.374;8.584;2023-02-18T16:24:25;5.70;;;2.42;;
25559;SDS011;13450;49.374;8.584;2023-02-18T16:26:52;6.72;;;3.20;;
25559;SDS011;13450;49.374;8.584;2023-02-18T16:29:23;5.65;;;2.95;;
25559;SDS011;13450;49.374;8.584;2023-02-18T16:32:00;6.50;;;2.80;;
25559;SDS011;13450;49.374;8.584;2023-02-18T16:34:26;6.32;;;2.90;;
25559;SDS011;13450;49.374;8.584;2023-02-18T16:36:51;6.15;;;2.65;;
25559;SDS011;13450;49.374;8.584;2023-02-18T16:39:36;6.72;;;3.08;;
25559;SDS011;13450;49.374;8.584;2023-02-18T16:42:07;5.90;;;2.55;;
25559;SDS011;13450;49.374;8.584;2023-02-18T16:44:35;5.50;;;2.17;;
25559;SDS011;13450;49.374;8.584;2023-02-18T16:47:01;4.55;;;2.25;;
25559;SDS011;13450;49.374;8.584;2023-02-18T16:49:30;4.57;;;2.10;;
25559;SDS011;13450;49.374;8.584;2023-02-18T16:51:58;7.72;;;2.80;;
25559;SDS011;13450;49.374;8.584;2023-02-18T16:54:26;5.75;;;2.38;;
25559;SDS011;13450;49.374;8.584;2023-02-18T16:56:53;5.38;;;2.38;;
25559;SDS011;13450;49.374;8.584;2023-02-18T16:59:18;5.90;;;2.38;;
25559;SDS011;13450;49.374;8.584;2023-02-18T17:01:43;4.40;;;2.65;;
25559;SDS011;13450;49.374;8.584;2023-02-18T17:04:11;5.60;;;2.28;;
25559;SDS011;13450;49.374;8.584;2023-02-18T17:06:39;6.07;;;2.65;;
25559;SDS011;13450;49.374;8.584;2023-02-18T17:09:10;7.18;;;2.90;;
25559;SDS011;13450;49.374;8.584;2023-02-18T17:11:41;4.97;;;2.20;;
25559;SDS011;13450;49.374;8.584;2023-02-18T17:14:12;5.82;;;2.78;;
25559;SDS011;13450;49.374;8.584;2023-02-18T17:16:41;6.07;;;2.50;;
25559;SDS011;13450;49.374;8.584;2023-02-18T17:19:07;5.43;;;2.55;;
25559;SDS011;13450;49.374;8.584;2023-02-18T17:21:32;7.90;;;2.50;;
25559;SDS011;13450;49.374;8.584;2023-02-18T17:23:58;6.57;;;3.00;;
25559;SDS011;13450;49.374;8.584;2023-02-18T17:26:24;9.82;;;3.58;;
25559;SDS011;13450;49.374;8.584;2023-02-18T17:28:55;6.90;;;3.83;;
25559;SDS011;13450;49.374;8.584;2023-02-18T17:33:55;5.13;;;2.70;;
25559;SDS011;13450;49.374;8.584;2023-02-18T17:36:23;7.15;;;3.35;;
25559;SDS011;13450;49.374;8.584;2023-02-18T17:38:49;5.05;;;2.67;;
25559;SDS011;13450;49.374;8.584;2023-02-18T17:41:17;4.85;;;2.50;;
25559;SDS011;13450;49.374;8.584;2023-02-18T17:43:43;5.93;;;2.80;;
25559;SDS011;13450;49.374;8.584;2023-02-18T17:46:10;6.18;;;3.08;;
25559;SDS011;13450;49.374;8.584;2023-02-18T17:48:37;5.95;;;2.70;;
25559;SDS011;13450;49.374;8.584;2023-02-18T17:51:03;6.30;;;2.50;;
25559;SDS011;13450;49.374;8.584;2023-02-18T17:53:31;4.95;;;2.50;;
25559;SDS011;13450;49.374;8.584;2023-02-18T17:55:58;4.93;;;2.47;;
25559;SDS011;13450;49.374;8.584;2023-02-18T17:58:24;5.95;;;2.90;;
25559;SDS011;13450;49.374;8.584;2023-02-18T18:00:51;5.70;;;2.97;;
25559;SDS011;13450;49.374;8.584;2023-02-18T18:03:21;6.15;;;2.70;;
25559;SDS011;13450;49.374;8.584;2023-02-18T18:05:48;5.93;;;2.80;;
25559;SDS011;13450;49.374;8.584;2023-02-18T18:08:18;6.25;;;2.90;;
25559;SDS011;13450;49.374;8.584;2023-02-18T18:10:50;6.00;;;2.72;;
25559;SDS011;13450;49.374;8.584;2023-02-18T18:13:28;8.27;;;3.65;;
25559;SDS011;13450;49.374;8.584;2023-02-18T18:15:58;6.75;;;3.35;;
25559;SDS011;13450;49.374;8.584;2023-02-18T18:18:24;5.68;;;2.75;;
25559;SDS011;13450;49.374;8.584;2023-02-18T18:20:52;6.65;;;3.10;;
25559;SDS011;13450;49.374;8.584;2023-02-18T18:23:21;5.75;;;2.80;;
25559;SDS011;13450;49.374;8.584;2023-02-18T18:25:51;5.13;;;2.53;;
25559;SDS011;13450;49.374;8.584;2023-02-18T18:28:19;7.65;;;3.20;;
25559;SDS011;13450;49.374;8.584;2023-02-18T18:30:46;7.18;;;2.97;;
25559;SDS011;13450;49.374;8.584;2023-02-18T18:33:16;5.40;;;2.72;;
25559;SDS011;13450;49.374;8.584;2023-02-18T18:35:43;5.20;;;2.75;;
25559;SDS011;13450;49.374;8.584;2023-02-18T18:38:10;5.78;;;2.83;;
25559;SDS011;13450;49.374;8.584;2023-02-18T18:40:37;5.72;;;2.65;;
25559;SDS011;13450;49.374;8.584;2023-02-18T18:43:02;5.40;;;2.58;;
25559;SDS011;13450;49.374;8.584;2023-02-18T18:45:29;5.70;;;2.55;;
25559;SDS011;13450;49.374;8.584;2023-02-18T18:50:27;5.32;;;2.35;;
25559;SDS011;13450;49.374;8.584;2023-02-18T19:03:13;6.45;;;2.75;;
25559;SDS011;13450;49.374;8.584;2023-02-18T19:05:40;6.18;;;3.10;;
25559;SDS011;13450;49.374;8.584;2023-02-18T19:08:07;5.72;;;2.70;;
25559;SDS011;13450;49.374;8.584;2023-02-18T19:10:43;6.10;;;2.95;;
25559;SDS011;13450;49.374;8.584;2023-02-18T19:15:45;6.40;;;3.35;;
25559;SDS011;13450;49.374;8.584;2023-02-18T19:25:56;5.88;;;2.70;;
25559;SDS011;13450;49.374;8.584;2023-02-18T19:30:58;5.22;;;2.63;;
25559;SDS011;13450;49.374;8.584;2023-02-18T19:38:33;11.45;;;2.85;;
25559;SDS011;13450;49.374;8.584;2023-02-18T19:41:10;5.40;;;2.80;;
25559;SDS011;13450;49.374;8.584;2023-02-18T19:43:45;6.20;;;2.88;;
25559;SDS011;13450;49.374;8.584;2023-02-18T19:46:13;5.88;;;2.80;;
25559;SDS011;13450;49.374;8.584;2023-02-18T19:48:48;5.05;;;2.50;;
25559;SDS011;13450;49.374;8.584;2023-02-18T19:51:29;5.50;;;2.53;;
25559;SDS011;13450;49.374;8.584;2023-02-18T20:06:45;5.65;;;2.78;;
25559;SDS011;13450;49.374;8.584;2023-02-18T20:09:10;4.95;;;2.65;;
25559;SDS011;13450;49.374;8.584;2023-02-18T20:11:35;6.03;;;3.08;;
25559;SDS011;13450;49.374;8.584;2023-02-18T20:14:01;5.25;;;2.60;;